Time;durP1;ratioP1;P1;durP2;ratioP2;P2;SDS_P1;SDS_P2;PMS_P1;PMS_P2;Temp;Humidity;BMP_temperature;BMP_pressure;BME280_temperature;BME280_humidity;BME280_pressure;Samples;Min_cycle;Max_cycle;Signal;HPM_P1;HPM_P2
2021/07/05 00:00:08;;;;;;;;;;;18.20;99.90;;;;;;5031347;28;19995;-70
2021/07/05 00:02:35;;;;;;;;;;;18.20;99.90;;;;;;5030047;28;19995;-70
2021/07/05 00:05:04;;;;;;;;;;;18.20;99.90;;;;;;5032023;28;19940;-70
2021/07/05 00:07:30;;;;;;;;;;;18.20;99.90;;;;;;5029161;28;19929;-70
2021/07/05 00:09:57;;;;;;;;;;;18.20;99.90;;;;;;5030688;28;20245;-70
2021/07/05 00:12:24;;;;;;;;;;;18.10;99.90;;;;;;5030102;28;20371;-71
2021/07/05 00:14:51;;;;;;;;;;;18.20;99.90;;;;;;5029388;28;19933;-70
2021/07/05 00:17:18;;;;;;;;;;;18.00;99.90;;;;;;5029308;28;19925;-70
2021/07/05 00:19:45;;;;;;;;;;;18.20;99.90;;;;;;5028471;28;19929;-69
2021/07/05 00:22:11;;;;;;;;;;;18.10;99.90;;;;;;5030257;28;19967;-70
2021/07/05 00:24:39;;;;;;;;;;;18.10;99.90;;;;;;5029606;28;19933;-69
2021/07/05 00:27:06;;;;;;;;;;;18.10;99.90;;;;;;5030565;28;19935;-70
2021/07/05 00:29:33;;;;;;;;;;;18.00;99.90;;;;;;5027336;28;20388;-71
2021/07/05 00:32:00;;;;;;;;;;;18.00;99.90;;;;;;5026582;28;20002;-70
2021/07/05 00:34:27;;;;;;;;;;;18.00;99.90;;;;;;5042217;28;19933;-70
2021/07/05 00:36:53;;;;;;;;;;;18.00;99.90;;;;;;5025533;28;19932;-69
2021/07/05 00:39:20;;;;;;;;;;;18.00;99.90;;;;;;5028845;28;22077;-69
2021/07/05 00:41:47;;;;;;;;;;;18.00;99.90;;;;;;5027335;28;19929;-71
2021/07/05 00:44:14;;;;;;;;;;;18.20;99.90;;;;;;5028623;28;20420;-70
2021/07/05 00:46:41;;;;;;;;;;;18.20;99.90;;;;;;5031030;28;20024;-70
2021/07/05 00:49:08;;;;;;;;;;;18.20;99.90;;;;;;5027445;28;19952;-71
2021/07/05 00:51:34;;;;;;;;;;;18.00;99.90;;;;;;5028532;28;19987;-70
2021/07/05 00:54:02;;;;;;;;;;;18.10;99.90;;;;;;5030105;28;19948;-69
2021/07/05 00:56:29;;;;;;;;;;;18.00;99.90;;;;;;5028705;28;20343;-70
2021/07/05 00:58:58;;;;;;;;;;;18.10;99.90;;;;;;5028655;28;19929;-70
2021/07/05 01:01:24;;;;;;;;;;;18.10;99.90;;;;;;5029254;28;19925;-70
2021/07/05 01:03:51;;;;;;;;;;;18.00;99.90;;;;;;5027864;28;19933;-70
2021/07/05 01:06:18;;;;;;;;;;;18.10;99.90;;;;;;5028693;28;19940;-70
2021/07/05 01:08:45;;;;;;;;;;;18.00;99.90;;;;;;5028139;28;19925;-70
2021/07/05 01:11:12;;;;;;;;;;;18.10;99.90;;;;;;5030412;28;19925;-69
2021/07/05 01:13:38;;;;;;;;;;;18.00;99.90;;;;;;5031047;28;20015;-72
2021/07/05 01:16:06;;;;;;;;;;;18.10;99.90;;;;;;5030089;28;20303;-73
2021/07/05 01:18:33;;;;;;;;;;;18.10;99.90;;;;;;5028003;28;19929;-74
2021/07/05 01:21:00;;;;;;;;;;;18.10;99.90;;;;;;5027805;28;19926;-73
2021/07/05 01:23:28;;;;;;;;;;;18.10;99.90;;;;;;5027227;28;20335;-73
2021/07/05 01:25:55;;;;;;;;;;;18.00;99.90;;;;;;5025817;28;20377;-73
2021/07/05 01:28:22;;;;;;;;;;;17.90;99.90;;;;;;5027773;28;20347;-73
2021/07/05 01:30:49;;;;;;;;;;;17.80;99.90;;;;;;5027940;28;20331;-73
2021/07/05 01:33:16;;;;;;;;;;;17.80;99.90;;;;;;5026324;28;20284;-73
2021/07/05 01:35:44;;;;;;;;;;;17.80;99.90;;;;;;5027941;28;19971;-73
2021/07/05 01:38:20;;;;;;;;;;;17.70;99.90;;;;;;5028177;28;19925;-73
2021/07/05 01:40:57;;;;;;;;;;;17.60;99.90;;;;;;5027925;28;19934;-72
2021/07/05 01:43:24;;;;;;;;;;;17.70;99.90;;;;;;5022992;28;19932;-73
2021/07/05 01:45:51;;;;;;;;;;;17.60;99.90;;;;;;5027753;28;20481;-73
2021/07/05 01:48:18;;;;;;;;;;;17.50;99.90;;;;;;5024325;28;19974;-73
2021/07/05 01:50:45;;;;;;;;;;;17.40;99.90;;;;;;5021715;28;19925;-73
2021/07/05 01:53:12;;;;;;;;;;;17.50;99.90;;;;;;5028716;28;19999;-73
2021/07/05 01:55:39;;;;;;;;;;;17.40;99.90;;;;;;5028541;28;19929;-73
2021/07/05 01:58:07;;;;;;;;;;;17.30;99.90;;;;;;5029665;28;19979;-73
2021/07/05 02:00:35;;;;;;;;;;;17.50;99.90;;;;;;5028646;28;19944;-73
2021/07/05 02:03:03;;;;;;;;;;;17.60;99.90;;;;;;5032201;28;20257;-73
2021/07/05 02:05:30;;;;;;;;;;;17.60;99.90;;;;;;5029702;28;19925;-73
2021/07/05 02:07:57;;;;;;;;;;;17.70;99.90;;;;;;5029557;28;19971;-73
2021/07/05 02:10:25;;;;;;;;;;;17.60;99.90;;;;;;5027859;28;19933;-73
2021/07/05 02:12:52;;;;;;;;;;;17.60;99.90;;;;;;5026062;28;19933;-74
2021/07/05 02:15:19;;;;;;;;;;;17.60;99.90;;;;;;5027156;28;20013;-74
2021/07/05 02:17:46;;;;;;;;;;;17.60;99.90;;;;;;5023426;28;19971;-73
2021/07/05 02:20:18;;;;;;;;;;;17.40;99.90;;;;;;5029835;28;19928;-74
2021/07/05 02:22:45;;;;;;;;;;;17.50;99.90;;;;;;5028528;28;20516;-73
2021/07/05 02:25:13;;;;;;;;;;;17.40;99.90;;;;;;5029303;28;19940;-74
2021/07/05 02:27:40;;;;;;;;;;;17.50;99.90;;;;;;5023575;28;19925;-73
2021/07/05 02:30:09;;;;;;;;;;;17.40;99.90;;;;;;5027294;28;19929;-73
2021/07/05 02:32:36;;;;;;;;;;;17.50;99.90;;;;;;5026055;28;20264;-73
2021/07/05 02:35:04;;;;;;;;;;;17.60;99.90;;;;;;5029553;28;19953;-74
2021/07/05 02:37:31;;;;;;;;;;;17.60;99.90;;;;;;5029277;28;20365;-74
2021/07/05 02:39:58;;;;;;;;;;;17.60;99.90;;;;;;5028892;28;19983;-71
2021/07/05 02:42:25;;;;;;;;;;;17.60;99.90;;;;;;5028819;28;19932;-68
2021/07/05 02:44:51;;;;;;;;;;;17.60;99.90;;;;;;5043598;28;19932;-71
2021/07/05 02:47:18;;;;;;;;;;;17.40;99.90;;;;;;5029644;28;20359;-72
2021/07/05 02:49:45;;;;;;;;;;;17.50;99.90;;;;;;5029259;28;20376;-70
2021/07/05 02:52:12;;;;;;;;;;;17.60;99.90;;;;;;5033439;28;19932;-71
2021/07/05 02:54:39;;;;;;;;;;;17.70;99.90;;;;;;5031409;28;19937;-70
2021/07/05 02:57:06;;;;;;;;;;;17.70;99.90;;;;;;5042379;28;19933;-70
2021/07/05 02:59:33;;;;;;;;;;;17.70;99.90;;;;;;5033476;28;20395;-71
2021/07/05 03:02:00;;;;;;;;;;;17.60;99.90;;;;;;5032418;28;20257;-73
2021/07/05 03:04:26;;;;;;;;;;;17.60;99.90;;;;;;5027916;28;19929;-73
2021/07/05 03:06:53;;;;;;;;;;;17.70;99.90;;;;;;5030919;28;19932;-72
2021/07/05 03:09:20;;;;;;;;;;;17.70;99.90;;;;;;5032431;28;20343;-72
2021/07/05 03:11:47;;;;;;;;;;;17.80;99.90;;;;;;5031079;28;19932;-72
2021/07/05 03:14:14;;;;;;;;;;;17.70;99.90;;;;;;5031639;28;19933;-74
2021/07/05 03:16:41;;;;;;;;;;;17.70;99.90;;;;;;5031904;28;20292;-71
2021/07/05 03:19:08;;;;;;;;;;;17.70;99.90;;;;;;5027966;28;20324;-72
2021/07/05 03:21:35;;;;;;;;;;;17.80;99.90;;;;;;5032277;28;19937;-71
2021/07/05 03:24:02;;;;;;;;;;;17.70;99.90;;;;;;5031490;28;19926;-72
2021/07/05 03:26:28;;;;;;;;;;;17.70;99.90;;;;;;5029327;28;19925;-72
2021/07/05 03:28:55;;;;;;;;;;;17.70;99.90;;;;;;5024769;28;19936;-72
2021/07/05 03:31:22;;;;;;;;;;;17.60;99.90;;;;;;5031192;28;19933;-73
2021/07/05 03:33:49;;;;;;;;;;;17.70;99.90;;;;;;5028478;28;19933;-72
2021/07/05 03:36:16;;;;;;;;;;;17.80;99.90;;;;;;5030772;28;20399;-72
2021/07/05 03:38:42;;;;;;;;;;;17.90;99.90;;;;;;5030195;28;19925;-72
2021/07/05 03:41:09;;;;;;;;;;;17.80;99.90;;;;;;5028801;28;19933;-73
2021/07/05 03:43:44;;;;;;;;;;;17.70;99.90;;;;;;5031268;28;19972;-74
2021/07/05 03:46:11;;;;;;;;;;;17.90;99.90;;;;;;5030603;28;19932;-73
2021/07/05 03:48:38;;;;;;;;;;;17.90;99.90;;;;;;5028849;28;19982;-73
2021/07/05 03:51:05;;;;;;;;;;;17.90;99.90;;;;;;5029248;28;19933;-73
2021/07/05 03:53:32;;;;;;;;;;;18.00;99.90;;;;;;5030309;28;20327;-73
2021/07/05 03:55:59;;;;;;;;;;;18.00;99.90;;;;;;5030634;28;19981;-71
2021/07/05 03:58:25;;;;;;;;;;;18.00;99.90;;;;;;5031944;28;19925;-72
2021/07/05 04:00:52;;;;;;;;;;;18.00;99.90;;;;;;5030457;28;19925;-72
2021/07/05 04:03:19;;;;;;;;;;;17.90;99.90;;;;;;5030434;28;20026;-72
2021/07/05 04:05:47;;;;;;;;;;;18.00;99.90;;;;;;5032823;28;19926;-72
2021/07/05 04:08:14;;;;;;;;;;;18.00;99.90;;;;;;5031214;28;20287;-72
2021/07/05 04:10:41;;;;;;;;;;;18.00;99.90;;;;;;5033202;28;21623;-72
2021/07/05 04:13:10;;;;;;;;;;;18.00;99.90;;;;;;5047068;28;19945;-72
2021/07/05 04:15:37;;;;;;;;;;;18.10;99.90;;;;;;5028920;28;20012;-73
2021/07/05 04:18:05;;;;;;;;;;;18.10;99.90;;;;;;5028114;28;19940;-72
2021/07/05 04:20:32;;;;;;;;;;;18.00;99.90;;;;;;5030934;28;20020;-72
2021/07/05 04:22:59;;;;;;;;;;;18.00;99.90;;;;;;5032680;28;20356;-72
2021/07/05 04:25:26;;;;;;;;;;;18.00;99.90;;;;;;5031137;28;19925;-72
2021/07/05 04:27:53;;;;;;;;;;;18.00;99.90;;;;;;5025040;28;20592;-72
2021/07/05 04:30:24;;;;;;;;;;;18.00;99.90;;;;;;5029134;28;19972;-72
2021/07/05 04:32:50;;;;;;;;;;;18.10;99.90;;;;;;5030594;28;20630;-72
2021/07/05 04:35:18;;;;;;;;;;;18.10;99.90;;;;;;5032897;28;19933;-72
2021/07/05 04:37:46;;;;;;;;;;;18.20;99.90;;;;;;5029379;28;19929;-71
2021/07/05 04:40:24;;;;;;;;;;;18.20;99.90;;;;;;5030549;28;19925;-71
2021/07/05 04:42:51;;;;;;;;;;;18.20;99.90;;;;;;5028073;28;20402;-69
2021/07/05 04:45:19;;;;;;;;;;;18.30;99.90;;;;;;5031195;28;19929;-71
2021/07/05 04:47:46;;;;;;;;;;;18.30;99.90;;;;;;5039738;28;19926;-71
2021/07/05 04:50:14;;;;;;;;;;;18.30;99.90;;;;;;5029403;28;19925;-71
2021/07/05 04:52:41;;;;;;;;;;;18.30;99.90;;;;;;5030760;28;20327;-71
2021/07/05 04:55:08;;;;;;;;;;;18.40;99.90;;;;;;5030951;28;19933;-70
2021/07/05 04:57:36;;;;;;;;;;;18.50;99.90;;;;;;5029904;28;19932;-71
2021/07/05 05:00:04;;;;;;;;;;;18.40;99.90;;;;;;5030224;28;19928;-72
2021/07/05 05:02:31;;;;;;;;;;;18.30;99.90;;;;;;5033774;28;19933;-71
2021/07/05 05:04:58;;;;;;;;;;;18.30;99.90;;;;;;5028623;28;19925;-71
2021/07/05 05:07:25;;;;;;;;;;;18.30;99.90;;;;;;5030356;28;20281;-71
2021/07/05 05:09:52;;;;;;;;;;;18.20;99.90;;;;;;5029410;28;20372;-72
2021/07/05 05:12:19;;;;;;;;;;;18.20;99.90;;;;;;5029353;28;19929;-69
2021/07/05 05:14:46;;;;;;;;;;;18.10;99.90;;;;;;5031316;28;19975;-70
2021/07/05 05:17:13;;;;;;;;;;;18.20;99.90;;;;;;5027500;28;19926;-70
2021/07/05 05:19:40;;;;;;;;;;;18.20;99.90;;;;;;5027885;28;19929;-70
2021/07/05 05:22:08;;;;;;;;;;;18.30;99.90;;;;;;5030158;28;19936;-70
2021/07/05 05:24:34;;;;;;;;;;;18.30;99.90;;;;;;5030910;28;19972;-70
2021/07/05 05:27:01;;;;;;;;;;;18.40;99.90;;;;;;5028309;28;19983;-70
2021/07/05 05:29:28;;;;;;;;;;;18.60;99.90;;;;;;5028763;28;19936;-70
2021/07/05 05:31:55;;;;;;;;;;;18.40;99.90;;;;;;5028693;28;19955;-70
2021/07/05 05:34:22;;;;;;;;;;;18.40;99.90;;;;;;5029050;28;19963;-71
2021/07/05 05:36:49;;;;;;;;;;;18.40;99.90;;;;;;5029623;28;19924;-71
2021/07/05 05:39:16;;;;;;;;;;;18.50;99.90;;;;;;5027917;28;19929;-71
2021/07/05 05:41:43;;;;;;;;;;;18.40;99.90;;;;;;5028205;28;20269;-72
2021/07/05 05:44:10;;;;;;;;;;;18.40;99.90;;;;;;5028951;28;20400;-69
2021/07/05 05:46:36;;;;;;;;;;;18.40;99.90;;;;;;5029818;28;19983;-69
2021/07/05 05:49:03;;;;;;;;;;;18.50;99.90;;;;;;5026257;28;20387;-69
2021/07/05 05:51:35;;;;;;;;;;;18.50;99.90;;;;;;5029057;28;19925;-70
2021/07/05 05:54:03;;;;;;;;;;;18.60;99.90;;;;;;5029344;28;19999;-70
2021/07/05 05:56:33;;;;;;;;;;;18.60;99.90;;;;;;5028467;28;20005;-70
2021/07/05 05:59:04;;;;;;;;;;;18.60;99.90;;;;;;5019633;28;20434;-70
2021/07/05 06:01:32;;;;;;;;;;;18.60;99.90;;;;;;5011103;28;20560;-70
2021/07/05 06:03:59;;;;;;;;;;;18.50;99.90;;;;;;5024026;28;19933;-71
2021/07/05 06:06:25;;;;;;;;;;;18.50;99.90;;;;;;5010096;28;20074;-71
2021/07/05 06:08:52;;;;;;;;;;;18.40;99.90;;;;;;5009751;28;19925;-71
2021/07/05 06:11:20;;;;;;;;;;;18.40;99.90;;;;;;5010136;28;19933;-72
2021/07/05 06:13:47;;;;;;;;;;;18.50;99.90;;;;;;5010767;28;19940;-71
2021/07/05 06:16:14;;;;;;;;;;;18.50;99.90;;;;;;5008303;28;20372;-71
2021/07/05 06:18:41;;;;;;;;;;;18.60;99.90;;;;;;5009782;28;19933;-72
2021/07/05 06:21:08;;;;;;;;;;;18.60;99.90;;;;;;5026432;28;19929;-72
2021/07/05 06:23:35;;;;;;;;;;;18.50;99.90;;;;;;5012625;28;19963;-72
2021/07/05 06:26:03;;;;;;;;;;;18.50;99.90;;;;;;5015796;28;20068;-72
2021/07/05 06:28:32;;;;;;;;;;;18.40;99.90;;;;;;5014165;28;19999;-72
2021/07/05 06:31:01;;;;;;;;;;;18.50;99.90;;;;;;5011521;28;19929;-72
2021/07/05 06:33:28;;;;;;;;;;;18.50;99.90;;;;;;5028254;28;19940;-73
2021/07/05 06:35:55;;;;;;;;;;;18.60;99.90;;;;;;5029663;28;20011;-72
2021/07/05 06:38:22;;;;;;;;;;;18.50;99.90;;;;;;5014160;28;19940;-73
2021/07/05 06:40:51;;;;;;;;;;;18.70;99.90;;;;;;5014311;28;19956;-73
2021/07/05 06:43:19;;;;;;;;;;;18.80;99.90;;;;;;5013480;28;19933;-72
2021/07/05 06:46:05;;;;;;;;;;;18.90;99.90;;;;;;5014651;28;19935;-73
2021/07/05 06:48:32;;;;;;;;;;;18.60;99.90;;;;;;5010250;28;19941;-72
2021/07/05 06:50:58;;;;;;;;;;;18.80;99.90;;;;;;5026755;28;19933;-72
2021/07/05 06:53:26;;;;;;;;;;;18.90;99.90;;;;;;5013119;28;19929;-72
2021/07/05 06:55:52;;;;;;;;;;;18.90;99.90;;;;;;5014948;28;19933;-72
2021/07/05 06:58:19;;;;;;;;;;;18.60;99.90;;;;;;5013263;28;19933;-72
2021/07/05 07:00:46;;;;;;;;;;;18.60;99.90;;;;;;5012867;28;19933;-72
2021/07/05 07:03:13;;;;;;;;;;;18.70;99.90;;;;;;5026833;28;19936;-73
2021/07/05 07:05:40;;;;;;;;;;;18.70;99.90;;;;;;5011523;28;19940;-73
2021/07/05 07:08:07;;;;;;;;;;;18.70;99.90;;;;;;5011863;28;19987;-72
2021/07/05 07:10:33;;;;;;;;;;;18.70;99.90;;;;;;5013241;28;19936;-72
2021/07/05 07:13:00;;;;;;;;;;;19.00;99.90;;;;;;5027856;28;19933;-72
2021/07/05 07:15:46;;;;;;;;;;;18.90;99.90;;;;;;5014577;28;19929;-72
2021/07/05 07:20:59;;;;;;;;;;;18.90;99.90;;;;;;5013577;28;20024;-74
2021/07/05 07:23:26;;;;;;;;;;;18.80;99.90;;;;;;5014266;28;20021;-73
2021/07/05 07:25:52;;;;;;;;;;;18.80;99.90;;;;;;5014016;28;21201;-72
2021/07/05 07:28:19;;;;;;;;;;;18.80;99.90;;;;;;5028689;28;19939;-72
2021/07/05 07:30:46;;;;;;;;;;;19.00;99.90;;;;;;5013430;28;19933;-72
2021/07/05 07:33:15;;;;;;;;;;;19.00;99.90;;;;;;5010749;28;20524;-70
2021/07/05 07:35:42;;;;;;;;;;;19.10;99.90;;;;;;5013360;28;19976;-71
2021/07/05 07:38:09;;;;;;;;;;;18.90;99.90;;;;;;5012588;28;19933;-73
2021/07/05 07:40:38;;;;;;;;;;;19.00;99.90;;;;;;5013773;28;19989;-72
2021/07/05 07:43:05;;;;;;;;;;;19.20;99.90;;;;;;5014107;28;20422;-71
2021/07/05 07:45:33;;;;;;;;;;;19.00;99.90;;;;;;5014344;28;19983;-71
2021/07/05 07:48:00;;;;;;;;;;;18.90;99.90;;;;;;5012151;28;19996;-70
2021/07/05 07:50:27;;;;;;;;;;;18.80;99.90;;;;;;5012210;28;19981;-71
2021/07/05 07:52:56;;;;;;;;;;;18.80;99.90;;;;;;5013245;28;19933;-71
2021/07/05 07:55:23;;;;;;;;;;;18.90;99.90;;;;;;5011629;28;21397;-71
2021/07/05 07:57:50;;;;;;;;;;;19.10;99.90;;;;;;5028039;28;20016;-71
2021/07/05 08:00:17;;;;;;;;;;;19.10;99.90;;;;;;5011851;28;19937;-73
2021/07/05 08:02:44;;;;;;;;;;;19.00;99.90;;;;;;5012762;28;19940;-73
2021/07/05 08:05:12;;;;;;;;;;;19.00;99.90;;;;;;5009861;28;19933;-73
2021/07/05 08:07:43;;;;;;;;;;;19.20;99.90;;;;;;5028029;28;20316;-73
2021/07/05 08:10:11;;;;;;;;;;;19.40;99.90;;;;;;5010819;28;20534;-73
2021/07/05 08:12:40;;;;;;;;;;;19.40;99.90;;;;;;5012890;28;20572;-71
2021/07/05 08:15:07;;;;;;;;;;;19.40;99.90;;;;;;5026238;28;20388;-72
2021/07/05 08:17:34;;;;;;;;;;;19.60;99.90;;;;;;5027356;28;20508;-71
2021/07/05 08:20:02;;;;;;;;;;;19.60;99.90;;;;;;5011313;28;19929;-72
2021/07/05 08:22:28;;;;;;;;;;;19.50;99.90;;;;;;5011765;28;19949;-73
2021/07/05 08:24:56;;;;;;;;;;;19.60;99.90;;;;;;5010783;28;19933;-72
2021/07/05 08:27:23;;;;;;;;;;;19.70;99.90;;;;;;5011736;28;20016;-72
2021/07/05 08:29:50;;;;;;;;;;;19.80;99.90;;;;;;5010640;28;19932;-72
2021/07/05 08:32:17;;;;;;;;;;;19.90;99.90;;;;;;5010886;28;19933;-72
2021/07/05 08:34:44;;;;;;;;;;;19.70;99.90;;;;;;5011706;28;19951;-72
2021/07/05 08:37:10;;;;;;;;;;;19.80;99.90;;;;;;5012229;28;19943;-71
2021/07/05 08:39:38;;;;;;;;;;;20.00;99.90;;;;;;5011836;28;20391;-72
2021/07/05 08:42:06;;;;;;;;;;;19.90;99.90;;;;;;5027139;28;19933;-71
2021/07/05 08:44:32;;;;;;;;;;;19.90;99.90;;;;;;5010527;28;19937;-72
2021/07/05 08:47:00;;;;;;;;;;;19.90;99.90;;;;;;5011265;28;20410;-72
2021/07/05 08:49:27;;;;;;;;;;;19.80;99.90;;;;;;5011048;28;19933;-72
2021/07/05 08:51:55;;;;;;;;;;;19.70;99.90;;;;;;5011909;28;19929;-72
2021/07/05 08:54:22;;;;;;;;;;;19.90;99.90;;;;;;5011649;28;20364;-72
2021/07/05 08:56:49;;;;;;;;;;;19.90;99.90;;;;;;5011056;28;19934;-71
2021/07/05 08:59:16;;;;;;;;;;;19.90;99.90;;;;;;5012365;28;19944;-72
2021/07/05 09:01:43;;;;;;;;;;;19.90;99.90;;;;;;5029026;28;19929;-70
2021/07/05 09:04:13;;;;;;;;;;;19.80;99.90;;;;;;5017692;28;19930;-71
2021/07/05 09:06:59;;;;;;;;;;;19.60;99.90;;;;;;5017973;28;19961;-72
2021/07/05 09:09:28;;;;;;;;;;;19.70;99.90;;;;;;5017175;28;19933;-73
2021/07/05 09:12:00;;;;;;;;;;;19.80;99.90;;;;;;5018105;28;19940;-72
2021/07/05 09:14:27;;;;;;;;;;;19.70;99.90;;;;;;5017773;28;19933;-72
2021/07/05 09:16:54;;;;;;;;;;;19.60;99.90;;;;;;5015200;28;19934;-72
2021/07/05 09:19:24;;;;;;;;;;;19.60;99.90;;;;;;5031764;28;19929;-71
2021/07/05 09:21:55;;;;;;;;;;;19.70;99.90;;;;;;5015980;28;19955;-72
2021/07/05 09:24:33;;;;;;;;;;;19.90;99.90;;;;;;5018274;28;19972;-73
2021/07/05 09:27:01;;;;;;;;;;;20.00;99.90;;;;;;5015659;28;19933;-73
2021/07/05 09:29:28;;;;;;;;;;;19.80;99.90;;;;;;5042726;28;19981;-73
2021/07/05 09:32:02;;;;;;;;;;;19.80;99.90;;;;;;5016345;28;19933;-73
2021/07/05 09:34:33;;;;;;;;;;;19.70;99.90;;;;;;5019623;28;19979;-73
2021/07/05 09:37:20;;;;;;;;;;;19.70;99.90;;;;;;5018344;28;19933;-74
2021/07/05 09:40:05;;;;;;;;;;;19.80;99.90;;;;;;5017891;28;20426;-72
2021/07/05 09:42:42;;;;;;;;;;;19.50;99.90;;;;;;5015553;28;20281;-72
2021/07/05 09:45:12;;;;;;;;;;;19.50;99.90;;;;;;5017221;28;19950;-79
2021/07/05 09:47:40;;;;;;;;;;;19.50;99.90;;;;;;5032601;28;20023;-72
2021/07/05 09:50:17;;;;;;;;;;;19.50;99.90;;;;;;5031508;28;19933;-72
2021/07/05 09:52:44;;;;;;;;;;;19.60;99.90;;;;;;5016942;28;20672;-73
2021/07/05 09:55:15;;;;;;;;;;;19.70;99.90;;;;;;5015291;28;19929;-73
2021/07/05 09:57:49;;;;;;;;;;;19.70;99.90;;;;;;5016146;28;20351;-73
2021/07/05 10:00:26;;;;;;;;;;;19.90;99.90;;;;;;5017796;28;19936;-74
2021/07/05 10:02:53;;;;;;;;;;;19.90;99.90;;;;;;5016790;28;20423;-73
2021/07/05 10:05:21;;;;;;;;;;;20.00;99.90;;;;;;5018013;28;19960;-74
2021/07/05 10:08:05;;;;;;;;;;;20.10;99.90;;;;;;5031757;28;19948;-74
2021/07/05 10:10:33;;;;;;;;;;;19.90;99.90;;;;;;5014749;28;19933;-73
2021/07/05 10:13:01;;;;;;;;;;;20.00;99.90;;;;;;5017912;28;19955;-73
2021/07/05 10:15:28;;;;;;;;;;;19.90;99.90;;;;;;5015447;28;19933;-74
2021/07/05 10:17:56;;;;;;;;;;;20.00;99.90;;;;;;5031248;28;19940;-72
2021/07/05 10:20:25;;;;;;;;;;;19.80;99.90;;;;;;5016381;28;20046;-73
2021/07/05 10:22:53;;;;;;;;;;;19.70;99.90;;;;;;5032327;28;19933;-74
2021/07/05 10:25:22;;;;;;;;;;;19.60;99.90;;;;;;5033769;28;19944;-73
2021/07/05 10:27:49;;;;;;;;;;;19.90;99.90;;;;;;5018996;28;20686;-74
2021/07/05 10:30:17;;;;;;;;;;;19.90;99.90;;;;;;5017976;28;19956;-72
2021/07/05 10:32:45;;;;;;;;;;;20.00;99.90;;;;;;5017442;28;19933;-73
2021/07/05 10:35:13;;;;;;;;;;;20.00;99.90;;;;;;5017195;28;20773;-73
2021/07/05 10:37:59;;;;;;;;;;;20.10;99.90;;;;;;5027381;28;19939;-75
2021/07/05 10:40:33;;;;;;;;;;;20.30;99.90;;;;;;5018238;28;19933;-73
2021/07/05 10:43:00;;;;;;;;;;;20.20;99.90;;;;;;5017730;28;19933;-73
2021/07/05 10:45:44;;;;;;;;;;;20.10;99.90;;;;;;5015070;28;19929;-74
2021/07/05 10:48:15;;;;;;;;;;;19.90;99.90;;;;;;5016962;28;19940;-72
2021/07/05 10:50:44;;;;;;;;;;;20.10;99.90;;;;;;5040926;28;20543;-72
2021/07/05 10:53:13;;;;;;;;;;;20.10;99.90;;;;;;5018343;28;20801;-72
2021/07/05 10:55:45;;;;;;;;;;;20.30;99.90;;;;;;5015585;28;19929;-72
2021/07/05 10:58:17;;;;;;;;;;;20.50;99.90;;;;;;5016870;28;19933;-74
2021/07/05 11:01:04;;;;;;;;;;;20.40;99.90;;;;;;5041692;28;20307;-74
2021/07/05 11:03:40;;;;;;;;;;;20.40;99.90;;;;;;5016700;28;20055;-74
2021/07/05 11:06:10;;;;;;;;;;;20.70;99.90;;;;;;5016412;28;19948;-75
2021/07/05 11:08:42;;;;;;;;;;;20.90;99.90;;;;;;5016708;28;19965;-74
2021/07/05 11:11:16;;;;;;;;;;;20.80;99.90;;;;;;5016532;28;19991;-74
2021/07/05 11:13:44;;;;;;;;;;;20.70;99.90;;;;;;5021006;28;19933;-75
2021/07/05 11:16:11;;;;;;;;;;;20.50;99.90;;;;;;5020895;28;19967;-74
2021/07/05 11:21:05;;;;;;;;;;;20.30;99.90;;;;;;5022160;28;19929;-74
2021/07/05 11:23:51;;;;;;;;;;;20.20;99.90;;;;;;5019307;28;19940;-75
2021/07/05 11:26:19;;;;;;;;;;;20.00;99.90;;;;;;5019627;28;19975;-74
2021/07/05 11:28:46;;;;;;;;;;;20.20;99.90;;;;;;5023679;28;19925;-74
2021/07/05 11:31:20;;;;;;;;;;;20.30;99.90;;;;;;5021894;28;19929;-75
2021/07/05 11:33:47;;;;;;;;;;;20.30;99.90;;;;;;5016543;28;19934;-76
2021/07/05 11:36:23;;;;;;;;;;;20.30;99.90;;;;;;5035798;28;19929;-77
2021/07/05 11:39:01;;;;;;;;;;;20.40;99.90;;;;;;5019522;28;19930;-76
2021/07/05 11:41:29;;;;;;;;;;;20.50;99.90;;;;;;5019086;28;20032;-76
2021/07/05 11:44:02;;;;;;;;;;;20.50;99.90;;;;;;5021853;28;19929;-79
2021/07/05 11:46:28;;;;;;;;;;;20.90;99.90;;;;;;5019020;28;20554;-76
2021/07/05 11:49:02;;;;;;;;;;;21.10;99.90;;;;;;5020596;28;19936;-77
2021/07/05 11:51:30;;;;;;;;;;;21.30;99.90;;;;;;5020132;28;19979;-76
2021/07/05 11:54:08;;;;;;;;;;;21.40;99.90;;;;;;5020750;28;19980;-77
2021/07/05 11:56:39;;;;;;;;;;;21.20;99.90;;;;;;5019383;28;20451;-75
2021/07/05 11:59:10;;;;;;;;;;;20.30;99.90;;;;;;5019731;28;19934;-74
2021/07/05 12:01:38;;;;;;;;;;;20.10;99.90;;;;;;5032792;28;19940;-77
2021/07/05 12:04:06;;;;;;;;;;;20.20;99.90;;;;;;5021533;28;20055;-76
2021/07/05 12:06:34;;;;;;;;;;;20.00;99.90;;;;;;5018736;28;19934;-74
2021/07/05 12:09:06;;;;;;;;;;;20.10;99.90;;;;;;5019138;28;19933;-76
2021/07/05 12:11:34;;;;;;;;;;;20.10;99.90;;;;;;5018892;28;19936;-73
2021/07/05 12:14:02;;;;;;;;;;;20.30;99.90;;;;;;5021048;28;20352;-71
2021/07/05 12:16:29;;;;;;;;;;;20.50;99.90;;;;;;5018545;28;19933;-71
2021/07/05 12:18:57;;;;;;;;;;;20.60;99.90;;;;;;5016265;28;19944;-73
2021/07/05 12:21:35;;;;;;;;;;;20.80;99.90;;;;;;5018791;28;19937;-73
2021/07/05 12:24:08;;;;;;;;;;;20.70;99.90;;;;;;5019355;28;20568;-73
2021/07/05 12:26:51;;;;;;;;;;;20.50;99.90;;;;;;5017598;28;19933;-73
2021/07/05 12:29:24;;;;;;;;;;;20.40;99.90;;;;;;5017946;28;19933;-72
2021/07/05 12:31:51;;;;;;;;;;;20.10;99.90;;;;;;5013496;28;20462;-73
2021/07/05 12:34:36;;;;;;;;;;;20.10;99.90;;;;;;5016185;28;20443;-72
2021/07/05 12:37:04;;;;;;;;;;;19.80;99.90;;;;;;5017060;28;19933;-71
2021/07/05 12:39:31;;;;;;;;;;;19.70;99.90;;;;;;5016257;28;19933;-72
2021/07/05 12:41:57;;;;;;;;;;;19.70;99.90;;;;;;5016511;28;20400;-72
2021/07/05 12:44:24;;;;;;;;;;;19.90;99.90;;;;;;5017653;28;20300;-72
2021/07/05 12:46:51;;;;;;;;;;;19.80;99.90;;;;;;5017622;28;19933;-72
2021/07/05 12:49:18;;;;;;;;;;;19.90;99.90;;;;;;5017939;28;21087;-72
2021/07/05 12:51:45;;;;;;;;;;;20.30;99.90;;;;;;5040536;28;19933;-73
2021/07/05 12:54:18;;;;;;;;;;;21.00;99.90;;;;;;5016202;28;19933;-73
2021/07/05 12:56:45;;;;;;;;;;;22.80;99.90;;;;;;5015701;28;19933;-73
2021/07/05 12:59:16;;;;;;;;;;;23.10;99.90;;;;;;5016935;28;19991;-72
2021/07/05 13:01:44;;;;;;;;;;;24.00;99.90;;;;;;5016753;28;19929;-73
2021/07/05 13:04:13;;;;;;;;;;;23.30;99.90;;;;;;5018164;28;19978;-73
2021/07/05 13:06:53;;;;;;;;;;;22.40;99.90;;;;;;5016451;28;19948;-71
2021/07/05 13:09:21;;;;;;;;;;;22.50;99.90;;;;;;5016130;28;19937;-71
2021/07/05 13:11:50;;;;;;;;;;;22.80;99.90;;;;;;5016641;28;20282;-71
2021/07/05 13:14:17;;;;;;;;;;;22.60;99.90;;;;;;5029176;28;20393;-71
2021/07/05 13:16:45;;;;;;;;;;;22.60;99.90;;;;;;5030884;28;19983;-72
2021/07/05 13:19:16;;;;;;;;;;;22.20;99.90;;;;;;5016318;28;19940;-72
2021/07/05 13:21:44;;;;;;;;;;;21.90;99.90;;;;;;5037076;28;21312;-72
2021/07/05 13:24:19;;;;;;;;;;;21.70;99.90;;;;;;5015779;28;19932;-72
2021/07/05 13:26:47;;;;;;;;;;;21.70;99.90;;;;;;5016542;28;19929;-72
2021/07/05 13:29:18;;;;;;;;;;;21.70;99.90;;;;;;5015348;28;19933;-71
2021/07/05 13:31:46;;;;;;;;;;;21.50;99.90;;;;;;5015108;28;19940;-73
2021/07/05 13:34:31;;;;;;;;;;;21.40;99.90;;;;;;5016384;28;19996;-72
2021/07/05 13:36:59;;;;;;;;;;;21.40;99.90;;;;;;5017944;28;20295;-71
2021/07/05 13:39:27;;;;;;;;;;;21.30;99.90;;;;;;5014910;28;19933;-73
2021/07/05 13:42:00;;;;;;;;;;;21.20;99.90;;;;;;5016171;28;19933;-72
2021/07/05 13:44:28;;;;;;;;;;;20.40;99.90;;;;;;5015621;28;19948;-71
2021/07/05 13:47:13;;;;;;;;;;;19.50;99.90;;;;;;5012134;28;20063;-72
2021/07/05 13:49:42;;;;;;;;;;;19.30;99.90;;;;;;5014179;28;19974;-71
2021/07/05 13:52:29;;;;;;;;;;;19.60;99.90;;;;;;5015076;28;19940;-72
2021/07/05 13:54:55;;;;;;;;;;;20.10;99.90;;;;;;5014927;28;19936;-73
2021/07/05 13:57:22;;;;;;;;;;;20.30;99.90;;;;;;5016353;28;19939;-73
2021/07/05 13:59:49;;;;;;;;;;;20.80;99.90;;;;;;5015734;28;19933;-78
2021/07/05 14:02:18;;;;;;;;;;;21.20;99.90;;;;;;5016180;28;20031;-77
2021/07/05 14:04:48;;;;;;;;;;;21.80;99.90;;;;;;5017432;28;19959;-77
2021/07/05 14:07:15;;;;;;;;;;;21.90;99.90;;;;;;5016782;28;19933;-76
2021/07/05 14:09:41;;;;;;;;;;;22.00;99.90;;;;;;5016721;28;19933;-78
2021/07/05 14:12:08;;;;;;;;;;;22.10;99.90;;;;;;5011346;28;20364;-78
2021/07/05 14:14:35;;;;;;;;;;;22.20;99.90;;;;;;5016217;28;19937;-79
2021/07/05 14:17:02;;;;;;;;;;;22.30;99.90;;;;;;5014640;28;20388;-79
2021/07/05 14:19:29;;;;;;;;;;;22.50;99.90;;;;;;5016940;28;20280;-77
2021/07/05 14:21:56;;;;;;;;;;;22.30;99.90;;;;;;5015510;28;20952;-78
2021/07/05 14:24:23;;;;;;;;;;;22.10;99.90;;;;;;5016438;28;19986;-77
2021/07/05 14:26:49;;;;;;;;;;;21.80;99.90;;;;;;5014853;28;19933;-78
2021/07/05 14:29:16;;;;;;;;;;;21.60;99.90;;;;;;5015803;28;19937;-78